createdAt,value
2022-12-29T00:00:35.288Z,74.22
2022-12-29T00:01:25.157Z,74.63
2022-12-29T00:02:15.211Z,73.60
2022-12-29T00:03:05.275Z,73.60
2022-12-29T00:03:55.270Z,73.50
2022-12-29T00:04:45.119Z,73.40
2022-12-29T00:05:35.119Z,73.91
2022-12-29T00:06:25.097Z,74.01
2022-12-29T00:07:15.095Z,73.91
2022-12-29T00:08:05.095Z,73.40
2022-12-29T00:08:55.118Z,73.81
2022-12-29T00:09:45.071Z,74.32
2022-12-29T00:10:35.060Z,74.87
2022-12-29T00:11:25.043Z,73.44
2022-12-29T00:12:15.045Z,73.13
2022-12-29T00:13:05.043Z,73.54
2022-12-29T00:13:55.042Z,72.92
2022-12-29T00:14:45.011Z,72.89
2022-12-29T00:15:35.092Z,72.17
2022-12-29T00:16:25.016Z,72.79
2022-12-29T00:17:14.982Z,72.79
2022-12-29T00:18:04.985Z,71.87
2022-12-29T00:18:54.982Z,72.48
2022-12-29T00:19:44.957Z,71.46
2022-12-29T00:20:34.944Z,72.28
2022-12-29T00:21:24.931Z,72.48
2022-12-29T00:22:14.924Z,72.17
2022-12-29T00:23:04.914Z,73.19
2022-12-29T00:23:54.921Z,73.10
2022-12-29T00:24:44.892Z,72.07
2022-12-29T00:25:34.889Z,72.17
2022-12-29T00:26:24.884Z,72.28
2022-12-29T00:27:14.869Z,72.07
2022-12-29T00:28:07.649Z,71.97
2022-12-29T00:28:54.875Z,71.26
2022-12-29T00:29:44.833Z,71.26
2022-12-29T00:30:34.835Z,71.56
2022-12-29T00:31:24.853Z,71.46
2022-12-29T00:32:14.820Z,71.15
2022-12-29T00:33:04.810Z,70.64
2022-12-29T00:33:54.814Z,70.00
2022-12-29T00:34:44.783Z,69.38
2022-12-29T00:35:34.779Z,69.18
2022-12-29T00:36:24.770Z,69.15
2022-12-29T00:37:14.756Z,69.05
2022-12-29T00:38:04.759Z,69.66
2022-12-29T00:38:54.755Z,70.07
2022-12-29T00:39:44.723Z,71.02
2022-12-29T00:40:34.726Z,70.51
2022-12-29T00:41:24.699Z,70.10
2022-12-29T00:42:14.701Z,70.20
2022-12-29T00:43:04.704Z,70.31
2022-12-29T00:43:54.697Z,69.29
2022-12-29T00:44:44.658Z,70.31
2022-12-29T00:45:34.661Z,70.10
2022-12-29T00:46:26.407Z,70.40
2022-12-29T00:47:14.719Z,70.92
2022-12-29T00:48:04.643Z,69.79
2022-12-29T00:48:54.651Z,70.20
2022-12-29T00:49:44.616Z,69.49
2022-12-29T00:50:34.613Z,68.88
2022-12-29T00:51:24.598Z,69.15
2022-12-29T00:52:14.615Z,69.15
2022-12-29T00:53:04.584Z,69.59
2022-12-29T00:53:54.588Z,68.67
2022-12-29T00:54:44.556Z,68.67
2022-12-29T00:55:34.548Z,68.74
2022-12-29T00:56:24.552Z,69.35
2022-12-29T00:57:14.544Z,68.23
2022-12-29T00:58:04.534Z,68.23
2022-12-29T00:58:54.548Z,69.05
2022-12-29T00:59:44.529Z,68.95
2022-12-29T01:00:34.536Z,68.64
2022-12-29T01:01:24.541Z,68.98
2022-12-29T01:02:14.570Z,68.88
2022-12-29T01:03:04.589Z,68.77
2022-12-29T01:03:57.429Z,69.90
2022-12-29T01:04:45.461Z,69.08
2022-12-29T01:05:34.436Z,68.98
2022-12-29T01:06:24.428Z,68.98
2022-12-29T01:07:14.430Z,69.08
2022-12-29T01:08:04.411Z,68.98
2022-12-29T01:08:54.423Z,69.49
2022-12-29T01:09:44.387Z,68.67
2022-12-29T01:10:34.393Z,69.18
2022-12-29T01:11:24.366Z,69.59
2022-12-29T01:12:14.433Z,68.67
2022-12-29T01:13:04.349Z,68.47
2022-12-29T01:13:54.399Z,68.88
2022-12-29T01:14:44.344Z,68.67
2022-12-29T01:15:34.328Z,67.52
2022-12-29T01:16:24.337Z,68.33
2022-12-29T01:17:14.311Z,67.21
2022-12-29T01:18:04.292Z,67.21
2022-12-29T01:18:54.297Z,67.11
2022-12-29T01:19:44.275Z,67.93
2022-12-29T01:20:34.295Z,68.95
2022-12-29T01:21:24.256Z,67.82
2022-12-29T01:22:14.261Z,67.62
2022-12-29T01:23:04.238Z,68.54
2022-12-29T01:23:54.244Z,67.82
2022-12-29T01:24:44.225Z,68.23
2022-12-29T01:25:34.214Z,68.64
2022-12-29T01:26:24.209Z,68.33
2022-12-29T01:27:14.197Z,69.08
2022-12-29T01:28:04.176Z,68.88
2022-12-29T01:28:54.199Z,68.26
2022-12-29T01:29:44.164Z,67.35
2022-12-29T01:30:34.161Z,68.23
2022-12-29T01:31:24.159Z,68.77
2022-12-29T01:32:14.143Z,68.67
2022-12-29T01:33:04.132Z,68.16
2022-12-29T01:33:54.141Z,67.96
2022-12-29T01:34:44.106Z,68.67
2022-12-29T01:35:34.095Z,69.59
2022-12-29T01:36:24.083Z,69.29
2022-12-29T01:37:14.084Z,69.79
2022-12-29T01:38:04.076Z,70.10
2022-12-29T01:38:54.076Z,68.16
2022-12-29T01:39:44.065Z,68.67
2022-12-29T01:40:34.044Z,67.72
2022-12-29T01:41:24.036Z,67.11
2022-12-29T01:42:14.034Z,67.01
2022-12-29T01:43:04.021Z,67.32
2022-12-29T01:43:54.023Z,67.62
2022-12-29T01:44:43.998Z,68.33
2022-12-29T01:45:34.064Z,67.01
2022-12-29T01:46:24.069Z,66.80
2022-12-29T01:47:13.989Z,67.21
2022-12-29T01:48:03.968Z,67.72
2022-12-29T01:48:53.963Z,66.50
2022-12-29T01:49:43.935Z,67.82
2022-12-29T01:50:33.934Z,67.32
2022-12-29T01:51:23.925Z,68.13
2022-12-29T01:52:13.914Z,68.03
2022-12-29T01:53:03.915Z,68.13
2022-12-29T01:53:53.904Z,68.33
2022-12-29T01:54:43.886Z,68.06
2022-12-29T01:55:33.886Z,67.85
2022-12-29T01:56:23.862Z,68.47
2022-12-29T01:57:13.856Z,68.57
2022-12-29T01:58:03.847Z,68.98
2022-12-29T01:58:53.852Z,68.37
2022-12-29T01:59:43.822Z,68.98
2022-12-29T02:00:33.843Z,68.37
2022-12-29T02:01:23.930Z,67.35
2022-12-29T02:02:13.851Z,67.52
2022-12-29T02:03:03.836Z,68.44
2022-12-29T02:03:53.796Z,68.98
2022-12-29T02:04:43.771Z,69.18
2022-12-29T02:05:33.766Z,69.49
2022-12-29T02:06:23.744Z,69.32
2022-12-29T02:07:13.741Z,68.47
2022-12-29T02:08:03.733Z,68.47
2022-12-29T02:08:53.756Z,68.98
2022-12-29T02:09:43.715Z,68.57
2022-12-29T02:10:33.835Z,68.47
2022-12-29T02:11:23.696Z,68.47
2022-12-29T02:12:13.680Z,68.98
2022-12-29T02:13:03.674Z,69.49
2022-12-29T02:13:53.681Z,68.06
2022-12-29T02:14:43.653Z,68.37
2022-12-29T02:15:33.651Z,69.08
2022-12-29T02:16:23.674Z,69.08
2022-12-29T02:17:13.635Z,69.59
2022-12-29T02:18:03.628Z,68.47
2022-12-29T02:18:53.633Z,69.49
2022-12-29T02:19:43.597Z,69.49
2022-12-29T02:20:33.601Z,69.59
2022-12-29T02:21:23.579Z,69.08
2022-12-29T02:22:13.580Z,68.57
2022-12-29T02:23:03.559Z,69.18
2022-12-29T02:23:53.571Z,68.47
2022-12-29T02:24:43.542Z,68.44
2022-12-29T02:25:33.527Z,68.57
2022-12-29T02:26:23.521Z,69.29
2022-12-29T02:27:13.516Z,70.20
2022-12-29T02:28:03.499Z,70.92
2022-12-29T02:28:53.509Z,69.38
2022-12-29T02:29:43.491Z,69.79
2022-12-29T02:30:33.479Z,70.51
2022-12-29T02:31:23.528Z,70.31
2022-12-29T02:32:13.500Z,70.51
2022-12-29T02:33:03.461Z,70.61
2022-12-29T02:33:53.460Z,70.61
2022-12-29T02:34:43.433Z,70.44
2022-12-29T02:35:33.417Z,70.64
2022-12-29T02:36:23.409Z,70.85
2022-12-29T02:37:13.399Z,71.46
2022-12-29T02:38:03.388Z,71.97
2022-12-29T02:38:53.394Z,72.58
2022-12-29T02:39:43.384Z,72.99
2022-12-29T02:40:33.362Z,72.07
2022-12-29T02:41:23.361Z,71.26
2022-12-29T02:42:13.347Z,71.56
2022-12-29T02:43:03.354Z,71.87
2022-12-29T02:43:53.347Z,71.56
2022-12-29T02:44:43.331Z,71.15
2022-12-29T02:45:33.418Z,70.72
2022-12-29T02:46:23.366Z,70.72
2022-12-29T02:47:13.289Z,71.22
2022-12-29T02:48:03.289Z,71.22
2022-12-29T02:48:53.278Z,71.02
2022-12-29T02:49:43.255Z,71.63
2022-12-29T02:50:33.263Z,71.33
2022-12-29T02:51:23.246Z,71.43
2022-12-29T02:52:13.225Z,72.14
2022-12-29T02:53:03.223Z,71.94
2022-12-29T02:53:53.233Z,72.14
2022-12-29T02:54:43.236Z,71.73
2022-12-29T02:55:33.193Z,71.84
2022-12-29T02:56:23.216Z,72.48
2022-12-29T02:57:13.182Z,72.55
2022-12-29T02:58:03.166Z,72.17
2022-12-29T02:58:53.176Z,72.14
2022-12-29T02:59:43.172Z,72.89
2022-12-29T03:00:33.135Z,72.38
2022-12-29T03:01:23.302Z,73.10
2022-12-29T03:02:13.219Z,73.60
2022-12-29T03:03:03.253Z,73.71
2022-12-29T03:03:53.113Z,72.38
2022-12-29T03:04:43.089Z,72.99
2022-12-29T03:05:33.071Z,73.50
2022-12-29T03:06:23.080Z,73.50
2022-12-29T03:07:13.068Z,73.81
2022-12-29T03:08:03.061Z,74.11
2022-12-29T03:08:53.052Z,73.30
2022-12-29T03:09:43.046Z,73.19
2022-12-29T03:10:33.025Z,72.99
2022-12-29T03:11:23.018Z,73.71
2022-12-29T03:12:13.010Z,73.30
2022-12-29T03:13:03.002Z,73.30
2022-12-29T03:13:52.993Z,72.89
2022-12-29T03:14:42.987Z,73.40
2022-12-29T03:15:32.973Z,73.60
2022-12-29T03:16:23.024Z,74.11
2022-12-29T03:17:13.127Z,73.19
2022-12-29T03:18:02.944Z,73.30
2022-12-29T03:18:52.946Z,72.69
2022-12-29T03:19:42.925Z,73.19
2022-12-29T03:20:32.907Z,73.50
2022-12-29T03:21:22.900Z,73.40
2022-12-29T03:22:12.896Z,73.81
2022-12-29T03:23:02.895Z,74.22
2022-12-29T03:23:52.893Z,74.11
2022-12-29T03:24:42.868Z,74.32
2022-12-29T03:25:32.853Z,73.71
2022-12-29T03:26:22.850Z,74.01
2022-12-29T03:27:12.836Z,74.52
2022-12-29T03:28:02.835Z,75.17
2022-12-29T03:28:52.847Z,75.58
2022-12-29T03:29:42.821Z,75.37
2022-12-29T03:30:32.836Z,75.37
2022-12-29T03:31:22.826Z,74.66
2022-12-29T03:32:12.778Z,74.87
2022-12-29T03:33:02.784Z,75.07
2022-12-29T03:33:52.772Z,75.58
2022-12-29T03:34:42.763Z,75.68
2022-12-29T03:35:32.741Z,75.58
2022-12-29T03:36:22.729Z,75.17
2022-12-29T03:37:12.730Z,74.87
2022-12-29T03:38:02.711Z,74.05
2022-12-29T03:38:52.718Z,74.35
2022-12-29T03:39:42.711Z,74.46
2022-12-29T03:40:32.689Z,74.66
2022-12-29T03:41:22.731Z,74.35
2022-12-29T03:42:12.767Z,75.27
2022-12-29T03:43:02.694Z,74.87
2022-12-29T03:43:52.660Z,75.51
2022-12-29T03:44:42.641Z,75.41
2022-12-29T03:45:32.630Z,75.31
2022-12-29T03:46:22.686Z,75.62
2022-12-29T03:47:12.638Z,75.71
2022-12-29T03:48:02.618Z,75.51
2022-12-29T03:48:52.601Z,75.10
2022-12-29T03:49:42.594Z,75.62
2022-12-29T03:50:32.594Z,75.62
2022-12-29T03:51:22.559Z,75.31
2022-12-29T03:52:12.561Z,74.59
2022-12-29T03:53:02.553Z,74.46
2022-12-29T03:53:52.553Z,74.97
2022-12-29T03:54:42.528Z,75.37
2022-12-29T03:55:32.520Z,75.37
2022-12-29T03:56:22.509Z,74.25
2022-12-29T03:57:12.499Z,74.35
2022-12-29T03:58:02.495Z,74.87
2022-12-29T03:58:52.522Z,74.05
2022-12-29T03:59:42.475Z,74.56
2022-12-29T04:00:32.469Z,74.97
2022-12-29T04:01:22.559Z,75.17
2022-12-29T04:02:12.765Z,75.68
2022-12-29T04:03:02.588Z,76.12
2022-12-29T04:03:52.514Z,74.80
2022-12-29T04:04:42.436Z,74.18
2022-12-29T04:05:32.399Z,74.25
2022-12-29T04:06:22.397Z,74.35
2022-12-29T04:07:12.387Z,74.76
2022-12-29T04:08:02.381Z,74.46
2022-12-29T04:08:52.389Z,74.87
2022-12-29T04:09:42.363Z,74.66
2022-12-29T04:10:32.367Z,74.76
2022-12-29T04:11:22.337Z,74.56
2022-12-29T04:12:12.327Z,74.76
2022-12-29T04:13:02.318Z,74.76
2022-12-29T04:13:52.336Z,74.87
2022-12-29T04:14:42.308Z,74.56
2022-12-29T04:15:32.323Z,75.48
2022-12-29T04:16:22.329Z,75.21
2022-12-29T04:17:12.284Z,74.35
2022-12-29T04:18:02.274Z,74.66
2022-12-29T04:18:52.272Z,74.97
2022-12-29T04:19:42.250Z,75.48
2022-12-29T04:20:32.237Z,75.58
2022-12-29T04:21:22.227Z,74.76
2022-12-29T04:22:12.216Z,75.27
2022-12-29T04:23:02.229Z,75.31
2022-12-29T04:23:52.206Z,75.00
2022-12-29T04:24:42.203Z,75.31
2022-12-29T04:25:32.175Z,75.92
2022-12-29T04:26:22.180Z,75.17
2022-12-29T04:27:12.163Z,75.27
2022-12-29T04:28:02.157Z,74.87
2022-12-29T04:28:52.156Z,75.07
2022-12-29T04:29:42.156Z,75.48
2022-12-29T04:30:32.128Z,74.87
2022-12-29T04:31:22.149Z,75.37
2022-12-29T04:32:12.105Z,75.48
2022-12-29T04:33:02.104Z,75.07
2022-12-29T04:33:52.099Z,75.07
2022-12-29T04:34:42.077Z,75.07
2022-12-29T04:35:32.066Z,74.97
2022-12-29T04:36:27.829Z,74.97
2022-12-29T04:37:13.049Z,76.09
2022-12-29T04:38:02.043Z,75.21
2022-12-29T04:38:52.035Z,75.71
2022-12-29T04:39:42.028Z,75.51
2022-12-29T04:40:32.025Z,74.66
2022-12-29T04:41:22.005Z,74.25
2022-12-29T04:42:12.002Z,74.05
2022-12-29T04:43:01.983Z,74.76
2022-12-29T04:43:51.989Z,74.87
2022-12-29T04:44:45.228Z,74.66
2022-12-29T04:45:31.945Z,75.68
2022-12-29T04:46:21.970Z,75.07
2022-12-29T04:47:11.997Z,75.37
2022-12-29T04:48:01.932Z,74.76
2022-12-29T04:48:51.939Z,74.35
2022-12-29T04:49:41.914Z,74.46
2022-12-29T04:50:31.896Z,74.56
2022-12-29T04:51:21.886Z,75.48
2022-12-29T04:52:11.877Z,74.87
2022-12-29T04:53:01.869Z,74.87
2022-12-29T04:53:51.893Z,74.87
2022-12-29T04:54:41.854Z,74.56
2022-12-29T04:55:31.844Z,74.66
2022-12-29T04:56:21.850Z,75.58
2022-12-29T04:57:11.823Z,75.37
2022-12-29T04:58:01.819Z,75.37
2022-12-29T04:58:51.823Z,75.62
2022-12-29T04:59:41.795Z,75.41
2022-12-29T05:00:31.789Z,76.23
2022-12-29T05:01:21.895Z,75.71
2022-12-29T05:02:11.870Z,75.92
2022-12-29T05:03:01.949Z,76.23
2022-12-29T05:03:51.817Z,76.12
2022-12-29T05:04:41.731Z,76.23
2022-12-29T05:05:31.732Z,76.03
2022-12-29T05:06:21.718Z,76.23
2022-12-29T05:07:11.715Z,76.03
2022-12-29T05:08:01.703Z,75.92
2022-12-29T05:08:51.709Z,76.33
2022-12-29T05:09:41.688Z,75.37
2022-12-29T05:10:31.680Z,75.89
2022-12-29T05:11:21.673Z,75.89
2022-12-29T05:12:11.656Z,76.12
2022-12-29T05:13:01.659Z,76.33
2022-12-29T05:13:51.651Z,76.33
2022-12-29T05:14:41.627Z,76.53
2022-12-29T05:15:31.619Z,76.03
2022-12-29T05:16:21.674Z,75.21
2022-12-29T05:17:11.604Z,76.03
2022-12-29T05:18:01.590Z,75.58
2022-12-29T05:18:51.613Z,75.27
2022-12-29T05:19:41.571Z,75.07
2022-12-29T05:20:31.571Z,75.58
2022-12-29T05:21:21.542Z,75.07
2022-12-29T05:22:11.554Z,75.27
2022-12-29T05:23:01.558Z,75.17
2022-12-29T05:23:51.533Z,74.66
2022-12-29T05:24:41.512Z,75.17
2022-12-29T05:25:31.511Z,74.66
2022-12-29T05:26:21.498Z,75.58
2022-12-29T05:27:11.492Z,74.97
2022-12-29T05:28:01.473Z,74.56
2022-12-29T05:28:51.485Z,74.87
2022-12-29T05:29:41.462Z,75.07
2022-12-29T05:30:31.454Z,74.97
2022-12-29T05:31:21.485Z,74.87
2022-12-29T05:32:11.431Z,74.46
2022-12-29T05:33:01.421Z,74.76
2022-12-29T05:33:51.433Z,75.07
2022-12-29T05:34:41.398Z,74.87
2022-12-29T05:35:31.395Z,75.07
2022-12-29T05:36:21.377Z,74.97
2022-12-29T05:37:11.379Z,75.27
2022-12-29T05:38:01.358Z,75.99
2022-12-29T05:38:51.385Z,75.48
2022-12-29T05:39:41.357Z,75.58
2022-12-29T05:40:31.330Z,75.48
2022-12-29T05:41:21.320Z,74.66
2022-12-29T05:42:11.322Z,75.07
2022-12-29T05:43:01.314Z,74.97
2022-12-29T05:43:51.329Z,73.84
2022-12-29T05:44:41.280Z,74.46
2022-12-29T05:45:31.284Z,74.56
2022-12-29T05:46:21.328Z,75.68
2022-12-29T05:47:11.336Z,75.17
2022-12-29T05:48:01.249Z,75.37
2022-12-29T05:48:51.260Z,75.07
2022-12-29T05:49:41.261Z,75.17
2022-12-29T05:50:31.234Z,75.17
2022-12-29T05:51:21.213Z,74.35
2022-12-29T05:52:11.212Z,74.56
2022-12-29T05:53:01.216Z,74.76
2022-12-29T05:53:51.205Z,74.66
2022-12-29T05:54:41.185Z,73.84
2022-12-29T05:55:31.169Z,73.60
2022-12-29T05:56:21.158Z,73.71
2022-12-29T05:57:11.172Z,73.50
2022-12-29T05:58:01.127Z,73.19
2022-12-29T05:58:51.214Z,73.19
2022-12-29T05:59:41.120Z,73.71
2022-12-29T06:00:31.123Z,73.91
2022-12-29T06:01:21.172Z,74.63
2022-12-29T06:02:11.270Z,74.22
2022-12-29T06:03:01.320Z,74.15
2022-12-29T06:03:51.324Z,73.81
2022-12-29T06:04:41.078Z,73.71
2022-12-29T06:05:31.752Z,73.60
2022-12-29T06:06:21.049Z,73.71
2022-12-29T06:07:11.038Z,74.11
2022-12-29T06:08:01.027Z,73.91
2022-12-29T06:08:51.020Z,73.50
2022-12-29T06:09:41.018Z,73.81
2022-12-29T06:10:31.005Z,72.89
2022-12-29T06:11:20.987Z,73.10
2022-12-29T06:12:10.987Z,73.71
2022-12-29T06:13:00.980Z,73.81
2022-12-29T06:13:50.967Z,73.50
2022-12-29T06:14:40.967Z,73.94
2022-12-29T06:15:30.947Z,73.84
2022-12-29T06:16:20.970Z,74.25
2022-12-29T06:17:10.931Z,74.25
2022-12-29T06:18:00.913Z,73.84
2022-12-29T06:18:50.909Z,74.35
2022-12-29T06:19:40.926Z,73.64
2022-12-29T06:20:30.886Z,73.54
2022-12-29T06:21:20.876Z,73.44
2022-12-29T06:22:10.878Z,73.33
2022-12-29T06:23:00.869Z,72.58
2022-12-29T06:23:50.859Z,72.79
2022-12-29T06:24:40.859Z,72.69
2022-12-29T06:25:30.825Z,72.48
2022-12-29T06:26:20.816Z,72.99
2022-12-29T06:27:10.827Z,73.19
2022-12-29T06:28:00.797Z,72.89
2022-12-29T06:28:50.796Z,73.30
2022-12-29T06:29:40.811Z,72.58
2022-12-29T06:30:30.783Z,72.99
2022-12-29T06:31:20.837Z,73.10
2022-12-29T06:32:10.816Z,72.48
2022-12-29T06:33:00.774Z,71.77
2022-12-29T06:33:50.742Z,72.28
2022-12-29T06:34:40.735Z,72.48
2022-12-29T06:35:30.729Z,71.94
2022-12-29T06:36:20.717Z,71.94
2022-12-29T06:37:10.699Z,71.43
2022-12-29T06:38:00.684Z,71.84
2022-12-29T06:38:50.697Z,71.43
2022-12-29T06:39:40.684Z,71.73
2022-12-29T06:40:30.664Z,71.33
2022-12-29T06:41:20.643Z,71.33
2022-12-29T06:42:10.658Z,71.43
2022-12-29T06:43:00.634Z,70.81
2022-12-29T06:43:50.627Z,71.33
2022-12-29T06:44:40.624Z,71.33
2022-12-29T06:45:30.653Z,70.20
2022-12-29T06:46:20.630Z,70.81
2022-12-29T06:47:10.588Z,70.72
2022-12-29T06:48:00.571Z,70.40
2022-12-29T06:48:50.576Z,70.61
2022-12-29T06:49:40.574Z,70.92
2022-12-29T06:50:30.604Z,71.22
2022-12-29T06:51:20.563Z,71.43
2022-12-29T06:52:12.955Z,71.53
2022-12-29T06:53:00.523Z,71.84
2022-12-29T06:53:50.522Z,71.22
2022-12-29T06:54:40.514Z,71.22
2022-12-29T06:55:30.506Z,71.43
2022-12-29T06:56:20.482Z,71.43
2022-12-29T06:57:10.477Z,71.73
2022-12-29T06:58:00.464Z,71.77
2022-12-29T06:58:50.464Z,71.77
2022-12-29T06:59:40.454Z,71.97
2022-12-29T07:00:30.432Z,72.17
2022-12-29T07:01:20.505Z,72.28
2022-12-29T07:02:10.507Z,72.28
2022-12-29T07:03:00.600Z,72.38
2022-12-29T07:03:50.401Z,72.07
2022-12-29T07:04:40.403Z,72.07
2022-12-29T07:05:30.383Z,71.67
2022-12-29T07:06:20.370Z,71.87
2022-12-29T07:07:10.371Z,72.58
2022-12-29T07:08:00.355Z,71.36
2022-12-29T07:08:50.355Z,71.56
2022-12-29T07:09:40.355Z,71.46
2022-12-29T07:10:30.403Z,71.56
2022-12-29T07:11:20.310Z,71.46
2022-12-29T07:12:10.303Z,71.46
2022-12-29T07:13:00.293Z,71.26
2022-12-29T07:13:50.291Z,70.54
2022-12-29T07:14:43.307Z,70.81
2022-12-29T07:15:30.282Z,71.22
2022-12-29T07:16:20.288Z,70.75
2022-12-29T07:17:10.315Z,70.40
2022-12-29T07:18:00.249Z,70.00
2022-12-29T07:18:50.241Z,69.90
2022-12-29T07:19:40.239Z,70.00
2022-12-29T07:20:30.221Z,70.92
2022-12-29T07:21:20.207Z,70.40
2022-12-29T07:22:10.207Z,70.10
2022-12-29T07:23:00.187Z,69.90
2022-12-29T07:23:50.180Z,70.40
2022-12-29T07:24:40.179Z,70.31
2022-12-29T07:25:30.159Z,70.92
2022-12-29T07:26:20.150Z,70.20
2022-12-29T07:27:10.146Z,70.00
2022-12-29T07:28:00.136Z,69.05
2022-12-29T07:28:50.125Z,69.25
2022-12-29T07:29:40.129Z,69.05
2022-12-29T07:30:30.100Z,68.64
2022-12-29T07:31:20.238Z,69.15
2022-12-29T07:32:10.162Z,68.54
2022-12-29T07:33:00.071Z,68.54
2022-12-29T07:33:50.080Z,68.74
2022-12-29T07:34:40.068Z,69.15
2022-12-29T07:35:30.060Z,69.46
2022-12-29T07:36:20.029Z,69.76
2022-12-29T07:37:10.033Z,68.74
2022-12-29T07:38:00.037Z,69.15
2022-12-29T07:38:50.009Z,68.74
2022-12-29T07:39:40.008Z,68.95
2022-12-29T07:40:36.984Z,68.61
2022-12-29T07:41:19.973Z,69.12
2022-12-29T07:42:09.975Z,68.61
2022-12-29T07:42:59.953Z,69.22
2022-12-29T07:43:49.954Z,69.66
2022-12-29T07:44:39.953Z,68.74
2022-12-29T07:45:29.933Z,68.71
2022-12-29T07:46:55.030Z,69.12
2022-12-29T07:47:10.944Z,69.32
2022-12-29T07:47:59.936Z,69.25
2022-12-29T07:48:49.894Z,68.95
2022-12-29T07:49:39.902Z,68.71
2022-12-29T07:50:29.885Z,68.61
2022-12-29T07:51:19.861Z,68.10
2022-12-29T07:52:09.866Z,68.91
2022-12-29T07:52:59.851Z,69.02
2022-12-29T07:53:49.842Z,68.61
2022-12-29T07:54:39.866Z,68.71
2022-12-29T07:55:29.827Z,67.69
2022-12-29T07:56:19.811Z,68.10
2022-12-29T07:57:09.801Z,68.71
2022-12-29T07:57:59.792Z,67.29
2022-12-29T07:58:49.783Z,68.40
2022-12-29T07:59:39.788Z,68.10
2022-12-29T08:00:29.767Z,68.40
2022-12-29T08:01:19.863Z,69.53
2022-12-29T08:02:09.882Z,67.79
2022-12-29T08:02:59.731Z,67.46
2022-12-29T08:03:55.395Z,67.76
2022-12-29T08:04:40.741Z,68.10
2022-12-29T08:05:29.700Z,67.66
2022-12-29T08:06:19.694Z,67.96
2022-12-29T08:07:09.689Z,67.79
2022-12-29T08:07:59.668Z,67.96
2022-12-29T08:08:49.692Z,69.09
2022-12-29T08:09:39.667Z,69.22
2022-12-29T08:10:29.653Z,68.30
2022-12-29T08:11:19.638Z,68.30
2022-12-29T08:12:09.635Z,68.71
2022-12-29T08:12:59.628Z,68.17
2022-12-29T08:13:49.618Z,67.35
2022-12-29T08:14:39.626Z,67.76
2022-12-29T08:15:32.522Z,67.96
2022-12-29T08:16:19.646Z,68.37
2022-12-29T08:17:09.584Z,67.86
2022-12-29T08:17:59.575Z,68.37
2022-12-29T08:18:49.557Z,67.96
2022-12-29T08:19:39.598Z,68.07
2022-12-29T08:20:29.541Z,68.57
2022-12-29T08:21:19.517Z,68.27
2022-12-29T08:22:09.547Z,67.96
2022-12-29T08:22:59.508Z,68.68
2022-12-29T08:23:49.512Z,68.37
2022-12-29T08:24:39.497Z,68.07
2022-12-29T08:25:29.481Z,67.66
2022-12-29T08:26:19.476Z,67.96
2022-12-29T08:27:18.176Z,68.17
2022-12-29T08:28:00.447Z,67.86
2022-12-29T08:28:49.627Z,67.66
2022-12-29T08:29:39.448Z,68.48
2022-12-29T08:30:29.426Z,69.19
2022-12-29T08:31:19.471Z,68.07
2022-12-29T08:32:09.407Z,67.66
2022-12-29T08:32:59.401Z,68.17
2022-12-29T08:33:49.391Z,67.93
2022-12-29T08:34:39.391Z,68.48
2022-12-29T08:35:29.357Z,68.98
2022-12-29T08:36:19.367Z,68.57
2022-12-29T08:37:09.355Z,68.78
2022-12-29T08:37:59.336Z,68.48
2022-12-29T08:38:49.334Z,68.57
2022-12-29T08:39:39.351Z,68.78
2022-12-29T08:40:29.306Z,69.49
2022-12-29T08:41:19.311Z,69.59
2022-12-29T08:42:09.294Z,69.39
2022-12-29T08:42:59.286Z,68.98
2022-12-29T08:43:49.279Z,68.57
2022-12-29T08:44:39.289Z,68.57
2022-12-29T08:45:29.249Z,69.09
2022-12-29T08:46:19.255Z,69.59
2022-12-29T08:47:09.234Z,69.29
2022-12-29T08:47:59.228Z,69.80
2022-12-29T08:48:49.227Z,70.00
2022-12-29T08:49:39.281Z,69.49
2022-12-29T08:50:29.200Z,70.21
2022-12-29T08:51:24.529Z,70.00
2022-12-29T08:52:10.175Z,69.80
2022-12-29T08:52:59.171Z,70.54
2022-12-29T08:53:49.159Z,70.54
2022-12-29T08:54:39.174Z,69.73
2022-12-29T08:55:29.135Z,69.73
2022-12-29T08:56:19.127Z,69.90
2022-12-29T08:57:09.126Z,69.09
2022-12-29T08:57:59.119Z,69.09
2022-12-29T08:58:49.101Z,69.90
2022-12-29T08:59:39.104Z,70.21
2022-12-29T09:00:29.105Z,70.21
2022-12-29T09:01:19.158Z,69.70
2022-12-29T09:02:09.165Z,69.39
2022-12-29T09:02:59.226Z,69.59
2022-12-29T09:04:15.066Z,69.19
2022-12-29T09:04:40.196Z,69.70
2022-12-29T09:05:29.057Z,70.21
2022-12-29T09:06:19.015Z,70.72
2022-12-29T09:07:09.012Z,70.61
2022-12-29T09:07:58.994Z,70.72
2022-12-29T09:08:48.985Z,70.24
2022-12-29T09:09:38.997Z,69.83
2022-12-29T09:10:28.955Z,69.59
2022-12-29T09:11:18.960Z,70.10
2022-12-29T09:12:08.944Z,70.41
2022-12-29T09:12:58.950Z,70.00
2022-12-29T09:13:48.931Z,69.49
2022-12-29T09:14:38.976Z,69.90
2022-12-29T09:15:28.908Z,70.51
2022-12-29T09:16:18.957Z,70.21
2022-12-29T09:17:08.893Z,70.31
2022-12-29T09:17:58.881Z,70.41
2022-12-29T09:18:48.862Z,69.49
2022-12-29T09:19:38.890Z,69.59
2022-12-29T09:20:28.851Z,70.10
2022-12-29T09:21:18.845Z,70.31
2022-12-29T09:22:08.836Z,70.92
2022-12-29T09:22:58.822Z,70.72
2022-12-29T09:23:48.819Z,70.72
2022-12-29T09:24:38.822Z,70.82
2022-12-29T09:25:28.795Z,70.10
2022-12-29T09:26:18.793Z,70.10
2022-12-29T09:27:08.773Z,70.10
2022-12-29T09:27:58.765Z,69.90
2022-12-29T09:28:48.755Z,70.31
2022-12-29T09:29:38.761Z,70.82
2022-12-29T09:30:28.733Z,71.12
2022-12-29T09:31:18.770Z,71.36
2022-12-29T09:32:11.616Z,70.85
2022-12-29T09:32:59.709Z,71.36
2022-12-29T09:33:48.698Z,72.28
2022-12-29T09:34:38.709Z,72.08
2022-12-29T09:35:28.680Z,72.89
2022-12-29T09:36:18.682Z,72.58
2022-12-29T09:37:08.671Z,72.17
2022-12-29T09:37:58.679Z,71.87
2022-12-29T09:38:48.648Z,71.87
2022-12-29T09:39:38.651Z,71.97
2022-12-29T09:40:28.622Z,71.97
2022-12-29T09:41:18.616Z,71.36
2022-12-29T09:42:08.602Z,71.97
2022-12-29T09:42:58.599Z,71.73
2022-12-29T09:43:48.585Z,72.24
2022-12-29T09:44:38.600Z,71.84
2022-12-29T09:45:28.571Z,72.17
2022-12-29T09:46:18.628Z,72.14
2022-12-29T09:47:08.628Z,72.38
2022-12-29T09:47:58.548Z,72.69
2022-12-29T09:48:48.532Z,72.99
2022-12-29T09:49:38.531Z,73.10
2022-12-29T09:50:28.509Z,73.60
2022-12-29T09:51:18.501Z,72.38
2022-12-29T09:52:08.493Z,72.89
2022-12-29T09:52:58.488Z,72.17
2022-12-29T09:53:48.470Z,72.69
2022-12-29T09:54:38.491Z,71.97
2022-12-29T09:55:28.461Z,72.58
2022-12-29T09:56:18.443Z,72.48
2022-12-29T09:57:08.430Z,72.38
2022-12-29T09:57:58.458Z,72.79
2022-12-29T09:58:48.417Z,73.40
2022-12-29T09:59:38.416Z,72.79
2022-12-29T10:00:28.416Z,73.50
2022-12-29T10:01:25.529Z,73.60
2022-12-29T10:02:15.423Z,73.71
2022-12-29T10:02:58.480Z,73.30
2022-12-29T10:03:48.349Z,73.81
2022-12-29T10:04:38.411Z,73.81
2022-12-29T10:05:28.343Z,73.60
2022-12-29T10:06:18.338Z,73.91
2022-12-29T10:07:59.311Z,74.11
2022-12-29T10:08:48.305Z,74.52
2022-12-29T10:09:38.306Z,73.91
2022-12-29T10:10:28.282Z,74.73
2022-12-29T10:11:18.268Z,75.16
2022-12-29T10:12:08.257Z,74.96
2022-12-29T10:12:58.259Z,73.84
2022-12-29T10:13:48.247Z,74.55
2022-12-29T10:14:38.260Z,74.76
2022-12-29T10:15:28.226Z,74.15
2022-12-29T10:16:18.249Z,74.55
2022-12-29T10:17:08.210Z,74.25
2022-12-29T10:17:58.198Z,74.05
2022-12-29T10:18:48.259Z,74.11
2022-12-29T10:19:38.369Z,74.52
2022-12-29T10:20:28.168Z,73.71
2022-12-29T10:21:18.157Z,74.32
2022-12-29T10:22:08.261Z,74.73
2022-12-29T10:22:58.140Z,74.93
2022-12-29T10:23:48.158Z,74.76
2022-12-29T10:24:38.138Z,74.86
2022-12-29T10:25:31.260Z,75.07
2022-12-29T10:26:18.132Z,73.84
2022-12-29T10:27:08.097Z,73.91
2022-12-29T10:27:58.088Z,74.83
2022-12-29T10:28:48.240Z,74.86
2022-12-29T10:29:38.092Z,74.62
2022-12-29T10:30:28.058Z,74.01
2022-12-29T10:31:18.135Z,73.81
2022-12-29T10:32:08.218Z,74.83
2022-12-29T10:32:58.031Z,75.27
2022-12-29T10:33:48.018Z,75.48
2022-12-29T10:34:38.024Z,75.37
2022-12-29T10:35:27.996Z,75.57
2022-12-29T10:36:18.017Z,74.55
2022-12-29T10:37:07.977Z,74.76
2022-12-29T10:37:57.981Z,75.16
2022-12-29T10:38:47.957Z,75.07
2022-12-29T10:39:37.967Z,75.88
2022-12-29T10:40:27.952Z,74.76
2022-12-29T10:41:17.938Z,75.37
2022-12-29T10:42:07.926Z,75.37
2022-12-29T10:42:57.927Z,75.27
2022-12-29T10:43:47.902Z,75.37
2022-12-29T10:44:37.949Z,75.37